Time;durP1;ratioP1;P1;durP2;ratioP2;P2;SDS_P1;SDS_P2;PMS_P1;PMS_P2;Temp;Humidity;BMP_temperature;BMP_pressure;BME280_temperature;BME280_humidity;BME280_pressure;Samples;Min_cycle;Max_cycle;Signal;HPM_P1;HPM_P2
2023/12/20 00:02:20;;;;;;;0.40;0.40;;;5.30;99.90;;;;;;4994076;28;20603;-63
2023/12/20 00:04:45;;;;;;;0.73;0.73;;;5.30;99.90;;;;;;4993948;28;20670;-63
2023/12/20 00:07:11;;;;;;;4.33;1.90;;;5.40;99.90;;;;;;4994051;28;20643;-62
2023/12/20 00:09:37;;;;;;;2.30;1.13;;;5.40;99.90;;;;;;4993910;28;20199;-63
2023/12/20 00:12:02;;;;;;;0.33;0.33;;;5.40;99.90;;;;;;4993816;28;20629;-63
2023/12/20 00:14:28;;;;;;;1.07;1.03;;;5.40;99.90;;;;;;4993895;28;20178;-63
2023/12/20 00:16:54;;;;;;;0.63;0.63;;;5.30;99.90;;;;;;4993726;28;20207;-63
2023/12/20 00:19:19;;;;;;;0.60;0.60;;;5.30;99.90;;;;;;4993853;28;20243;-63
2023/12/20 00:21:45;;;;;;;0.47;0.47;;;5.40;99.90;;;;;;4993768;28;20178;-63
2023/12/20 00:24:11;;;;;;;0.30;0.30;;;5.40;99.90;;;;;;4993739;28;20174;-63
2023/12/20 00:26:36;;;;;;;0.40;0.40;;;5.50;99.90;;;;;;4993630;28;20183;-63
2023/12/20 00:29:02;;;;;;;1.27;1.17;;;5.60;99.90;;;;;;4993936;28;20176;-63
2023/12/20 00:31:28;;;;;;;0.40;0.40;;;5.70;99.90;;;;;;4993149;28;20196;-63
2023/12/20 00:33:54;;;;;;;1.83;0.67;;;5.80;99.90;;;;;;4993498;28;20179;-63
2023/12/20 00:36:20;;;;;;;0.68;0.68;;;5.70;99.90;;;;;;4993282;28;20354;-62
2023/12/20 00:38:45;;;;;;;0.57;0.57;;;5.70;99.90;;;;;;4993392;28;20267;-62
2023/12/20 00:41:11;;;;;;;0.40;0.40;;;5.70;99.90;;;;;;4992936;28;20211;-63
2023/12/20 00:43:37;;;;;;;0.40;0.40;;;5.70;99.90;;;;;;4993354;28;20191;-62
2023/12/20 00:46:02;;;;;;;0.30;0.30;;;5.80;99.90;;;;;;4993339;28;20629;-63
2023/12/20 00:48:30;;;;;;;1.23;0.57;;;5.70;99.90;;;;;;4993077;28;20232;-63
2023/12/20 00:50:55;;;;;;;0.38;0.38;;;5.70;99.90;;;;;;4992834;28;20190;-62
2023/12/20 00:53:21;;;;;;;0.50;0.50;;;5.60;99.90;;;;;;4993147;28;20176;-63
2023/12/20 00:55:47;;;;;;;2.53;0.77;;;5.60;99.90;;;;;;4993053;28;20690;-63
2023/12/20 00:58:15;;;;;;;0.60;0.60;;;5.60;99.90;;;;;;4993067;28;20174;-62
2023/12/20 01:00:42;;;;;;;0.40;0.40;;;5.60;99.90;;;;;;4993095;28;20192;-62
2023/12/20 01:03:07;;;;;;;0.40;0.40;;;5.60;99.90;;;;;;4992903;28;20668;-62
2023/12/20 01:05:33;;;;;;;0.50;0.50;;;5.70;99.90;;;;;;4993020;28;20185;-62
2023/12/20 01:07:58;;;;;;;0.50;0.40;;;5.80;99.90;;;;;;4992970;28;20177;-63
2023/12/20 01:10:27;;;;;;;0.30;0.30;;;5.80;99.90;;;;;;4992601;28;20211;-63
2023/12/20 01:12:53;;;;;;;0.40;0.40;;;5.70;99.90;;;;;;4992809;28;20177;-63
2023/12/20 01:15:19;;;;;;;1.07;1.07;;;5.70;99.90;;;;;;4992705;28;20312;-62
2023/12/20 01:17:45;;;;;;;0.40;0.40;;;5.80;99.90;;;;;;4993165;28;20581;-62
2023/12/20 01:20:10;;;;;;;0.43;0.43;;;5.70;99.90;;;;;;4992255;28;20188;-63
2023/12/20 01:22:36;;;;;;;0.40;0.40;;;5.70;99.90;;;;;;4992271;28;20475;-63
2023/12/20 01:25:02;;;;;;;0.63;0.40;;;5.80;99.90;;;;;;4992742;28;20176;-62
2023/12/20 01:27:28;;;;;;;0.30;0.30;;;5.80;99.90;;;;;;4992633;28;20439;-63
2023/12/20 01:29:54;;;;;;;0.50;0.50;;;5.90;99.90;;;;;;4992176;28;20522;-62
2023/12/20 01:32:20;;;;;;;0.40;0.40;;;5.90;99.90;;;;;;4992474;28;20296;-62
2023/12/20 01:34:45;;;;;;;0.40;0.40;;;5.90;99.90;;;;;;4992884;28;20208;-63
2023/12/20 01:37:11;;;;;;;0.40;0.40;;;5.90;99.90;;;;;;4992455;28;20201;-63
2023/12/20 01:39:36;;;;;;;0.40;0.40;;;5.90;99.90;;;;;;4992185;28;20286;-63
2023/12/20 01:42:02;;;;;;;0.60;0.60;;;5.80;99.90;;;;;;4992363;28;20550;-63
2023/12/20 01:44:28;;;;;;;0.40;0.40;;;5.80;99.90;;;;;;4992379;28;20172;-63
2023/12/20 01:46:54;;;;;;;0.50;0.50;;;5.90;99.90;;;;;;4992359;28;20180;-63
2023/12/20 01:49:20;;;;;;;0.30;0.30;;;5.90;99.90;;;;;;4992182;28;20180;-63
2023/12/20 01:51:46;;;;;;;0.40;0.40;;;5.90;99.90;;;;;;4992220;28;20186;-62
2023/12/20 01:54:13;;;;;;;0.40;0.40;;;5.90;99.90;;;;;;4992334;28;20186;-63
2023/12/20 01:56:39;;;;;;;0.40;0.40;;;5.90;99.90;;;;;;4992307;28;20369;-63
2023/12/20 01:59:06;;;;;;;0.30;0.30;;;5.90;99.90;;;;;;4992231;28;20218;-63
2023/12/20 02:01:32;;;;;;;0.82;0.40;;;5.90;99.90;;;;;;4991891;28;20199;-62
2023/12/20 02:03:59;;;;;;;0.30;0.30;;;6.00;99.90;;;;;;4992259;28;20580;-62
2023/12/20 02:06:29;;;;;;;0.40;0.40;;;5.90;99.90;;;;;;4992248;28;20788;-63
2023/12/20 02:08:54;;;;;;;0.30;0.30;;;5.80;99.90;;;;;;4992222;28;20266;-63
2023/12/20 02:11:21;;;;;;;0.40;0.40;;;5.80;99.90;;;;;;4991973;28;20694;-62
2023/12/20 02:13:46;;;;;;;0.30;0.30;;;5.90;99.90;;;;;;4992049;28;20193;-63
2023/12/20 02:16:12;;;;;;;0.40;0.40;;;5.90;99.90;;;;;;4992062;28;20201;-63
2023/12/20 02:18:39;;;;;;;0.30;0.30;;;5.80;99.90;;;;;;4992192;28;20173;-63
2023/12/20 02:21:05;;;;;;;0.40;0.40;;;5.80;99.90;;;;;;4991894;28;20435;-63
2023/12/20 02:23:31;;;;;;;0.40;0.40;;;5.70;99.90;;;;;;4992138;28;20659;-62
2023/12/20 02:25:57;;;;;;;0.30;0.30;;;5.60;99.90;;;;;;4992015;28;20191;-62
2023/12/20 02:28:23;;;;;;;0.37;0.37;;;5.40;99.90;;;;;;4991870;28;20197;-63
2023/12/20 02:30:49;;;;;;;0.40;0.40;;;5.40;99.90;;;;;;4991594;28;20678;-62
2023/12/20 02:33:15;;;;;;;0.38;0.38;;;5.30;99.90;;;;;;4992126;28;20182;-62
2023/12/20 02:35:41;;;;;;;0.30;0.30;;;5.30;99.90;;;;;;4994916;28;20207;-62
2023/12/20 02:38:07;;;;;;;0.30;0.30;;;5.30;99.90;;;;;;4995695;28;20643;-63
2023/12/20 02:40:32;;;;;;;0.40;0.40;;;5.30;99.90;;;;;;4995155;28;20200;-62
2023/12/20 02:42:58;;;;;;;0.40;0.40;;;5.30;99.90;;;;;;4995537;28;20176;-63
2023/12/20 02:45:24;;;;;;;0.40;0.40;;;5.40;99.90;;;;;;4995560;28;20809;-63
2023/12/20 02:47:49;;;;;;;0.30;0.30;;;5.40;99.90;;;;;;4995538;28;20174;-63
2023/12/20 02:50:15;;;;;;;0.40;0.40;;;5.40;99.90;;;;;;4995211;28;20597;-62
2023/12/20 02:52:40;;;;;;;0.40;0.40;;;5.40;99.90;;;;;;4995511;28;20665;-63
2023/12/20 02:55:06;;;;;;;0.47;0.47;;;5.40;99.90;;;;;;4995396;28;20698;-62
2023/12/20 02:57:33;;;;;;;1.20;1.00;;;5.40;99.90;;;;;;4995702;28;20207;-62
2023/12/20 02:59:59;;;;;;;0.40;0.40;;;5.50;99.90;;;;;;4995038;28;20221;-62
2023/12/20 03:02:24;;;;;;;0.40;0.40;;;5.50;99.90;;;;;;4995204;28;20176;-62
2023/12/20 03:04:50;;;;;;;0.40;0.40;;;5.50;99.90;;;;;;4995330;28;20172;-62
2023/12/20 03:07:15;;;;;;;0.30;0.30;;;5.50;99.90;;;;;;4995177;28;20518;-63
2023/12/20 03:09:41;;;;;;;0.40;0.40;;;5.40;99.90;;;;;;4994766;28;20246;-62
2023/12/20 03:12:07;;;;;;;0.53;0.43;;;5.40;99.90;;;;;;4994906;28;20207;-62
2023/12/20 03:14:32;;;;;;;0.30;0.30;;;5.40;99.90;;;;;;4995034;28;20183;-63
2023/12/20 03:16:58;;;;;;;0.30;0.30;;;5.30;99.90;;;;;;4994895;28;20200;-62
2023/12/20 03:19:24;;;;;;;0.40;0.40;;;5.30;99.90;;;;;;4994708;28;20199;-63
2023/12/20 03:21:50;;;;;;;0.30;0.30;;;5.30;99.90;;;;;;4994769;28;20180;-62
2023/12/20 03:24:15;;;;;;;0.33;0.33;;;5.40;99.90;;;;;;4994845;28;20182;-62
2023/12/20 03:26:41;;;;;;;0.30;0.30;;;5.40;99.90;;;;;;4994716;28;20282;-62
2023/12/20 03:29:06;;;;;;;0.30;0.30;;;5.30;99.90;;;;;;4994681;28;20172;-62
2023/12/20 03:31:32;;;;;;;0.30;0.30;;;5.30;99.90;;;;;;4994518;28;20188;-62
2023/12/20 03:33:58;;;;;;;0.30;0.30;;;5.20;99.90;;;;;;4993494;28;20562;-62
2023/12/20 03:36:23;;;;;;;0.40;0.40;;;5.20;99.90;;;;;;4994996;28;20543;-62
2023/12/20 03:38:49;;;;;;;0.40;0.40;;;5.10;99.90;;;;;;4994557;28;20174;-62
2023/12/20 03:41:14;;;;;;;0.30;0.30;;;5.20;99.90;;;;;;4976995;23;20257;-61
2023/12/20 03:43:40;;;;;;;0.30;0.30;;;5.20;99.90;;;;;;4955746;29;20174;-61
2023/12/20 03:46:08;;;;;;;0.40;0.40;;;5.20;99.90;;;;;;4955326;28;20179;-61
2023/12/20 03:48:33;;;;;;;0.35;0.35;;;5.20;99.90;;;;;;4955589;29;20200;-60
2023/12/20 03:50:59;;;;;;;0.30;0.30;;;5.30;99.90;;;;;;4955306;29;20194;-61
2023/12/20 03:53:25;;;;;;;0.30;0.30;;;5.40;99.90;;;;;;4955712;29;20178;-61
2023/12/20 03:55:50;;;;;;;0.30;0.30;;;5.40;99.90;;;;;;4955472;29;20289;-61
2023/12/20 03:58:16;;;;;;;0.40;0.40;;;5.30;99.90;;;;;;4955428;29;20174;-61
2023/12/20 04:00:41;;;;;;;0.60;0.60;;;5.30;99.90;;;;;;4955087;29;20194;-61
2023/12/20 04:03:07;;;;;;;0.40;0.40;;;5.30;99.90;;;;;;4955350;29;20170;-61
2023/12/20 04:05:33;;;;;;;0.40;0.40;;;5.30;99.90;;;;;;4955361;29;20170;-61
2023/12/20 04:08:01;;;;;;;0.30;0.30;;;5.30;99.90;;;;;;4955356;29;20545;-61
2023/12/20 04:10:27;;;;;;;0.40;0.40;;;5.30;99.90;;;;;;4938084;29;20579;-61
2023/12/20 04:12:53;;;;;;;0.50;0.50;;;5.30;99.90;;;;;;4955160;29;20178;-61
2023/12/20 04:15:18;;;;;;;0.40;0.40;;;5.40;99.90;;;;;;4955170;29;20170;-61
2023/12/20 04:17:44;;;;;;;0.40;0.40;;;5.40;99.90;;;;;;4955024;29;20185;-61
2023/12/20 04:20:10;;;;;;;0.30;0.30;;;5.40;99.90;;;;;;4954723;29;20181;-61
2023/12/20 04:22:35;;;;;;;0.30;0.30;;;5.40;99.90;;;;;;4955104;29;20169;-61
2023/12/20 04:25:02;;;;;;;0.30;0.30;;;5.40;99.90;;;;;;4955109;29;20417;-61
2023/12/20 04:27:27;;;;;;;0.30;0.30;;;5.40;99.90;;;;;;4954877;29;20686;-61
2023/12/20 04:29:53;;;;;;;0.40;0.40;;;5.30;99.90;;;;;;4954557;29;20189;-60
2023/12/20 04:32:18;;;;;;;0.30;0.30;;;5.20;99.90;;;;;;4954749;29;20644;-61
2023/12/20 04:34:44;;;;;;;0.40;0.40;;;5.10;99.90;;;;;;4954784;29;20221;-61
2023/12/20 04:37:09;;;;;;;0.30;0.30;;;5.10;99.90;;;;;;4954704;29;20770;-61
2023/12/20 04:39:35;;;;;;;0.40;0.40;;;5.10;99.90;;;;;;4954577;29;20172;-61
2023/12/20 04:42:01;;;;;;;0.30;0.30;;;5.10;99.90;;;;;;4954300;29;20234;-61
2023/12/20 04:44:27;;;;;;;0.37;0.37;;;5.00;99.90;;;;;;4954597;29;20174;-61
2023/12/20 04:46:52;;;;;;;0.40;0.40;;;5.00;99.90;;;;;;4954406;29;20178;-61
2023/12/20 04:49:18;;;;;;;0.40;0.40;;;5.00;99.90;;;;;;4954578;29;20194;-61
2023/12/20 04:51:43;;;;;;;0.30;0.30;;;4.90;99.90;;;;;;4954302;29;20232;-61
2023/12/20 04:54:10;;;;;;;1.23;0.53;;;5.00;99.90;;;;;;4954447;29;20308;-61
2023/12/20 04:56:36;;;;;;;0.30;0.30;;;5.10;99.90;;;;;;4953656;28;20210;-61
2023/12/20 04:59:01;;;;;;;0.33;0.33;;;5.20;99.90;;;;;;4954716;29;20232;-61
2023/12/20 05:01:27;;;;;;;0.40;0.40;;;5.10;99.90;;;;;;4953923;29;20204;-61
2023/12/20 05:03:53;;;;;;;0.40;0.40;;;5.10;99.90;;;;;;4954277;29;20171;-61
2023/12/20 05:06:19;;;;;;;0.40;0.40;;;5.10;99.90;;;;;;4954222;29;20189;-59
2023/12/20 05:08:44;;;;;;;0.37;0.37;;;5.10;99.90;;;;;;4954213;29;20674;-61
2023/12/20 05:11:10;;;;;;;0.40;0.40;;;5.10;99.90;;;;;;4953856;29;20210;-61
2023/12/20 05:13:35;;;;;;;0.40;0.40;;;5.20;99.90;;;;;;4954109;29;20252;-61
2023/12/20 05:16:01;;;;;;;0.40;0.40;;;5.20;99.90;;;;;;4953912;29;20197;-61
2023/12/20 05:18:27;;;;;;;0.40;0.40;;;5.40;99.90;;;;;;4954065;29;20197;-60
2023/12/20 05:20:52;;;;;;;0.60;0.60;;;5.50;99.90;;;;;;4953695;29;20194;-61
2023/12/20 05:23:18;;;;;;;0.50;0.40;;;5.40;99.90;;;;;;4954072;29;20213;-61
2023/12/20 05:25:44;;;;;;;0.73;0.73;;;5.50;99.90;;;;;;4953874;29;20930;-61
2023/12/20 05:28:09;;;;;;;3.83;0.50;;;5.60;99.90;;;;;;4953984;29;20205;-61
2023/12/20 05:30:35;;;;;;;0.40;0.40;;;5.50;99.90;;;;;;4953499;29;20197;-61
2023/12/20 05:33:01;;;;;;;0.40;0.40;;;5.60;99.90;;;;;;4953804;29;20177;-61
2023/12/20 05:35:26;;;;;;;0.50;0.50;;;5.70;99.90;;;;;;4953756;29;20670;-61
2023/12/20 05:37:52;;;;;;;0.70;0.70;;;5.80;99.90;;;;;;4953748;28;20197;-60
2023/12/20 05:40:17;;;;;;;0.30;0.30;;;5.80;99.90;;;;;;4953357;29;20284;-61
2023/12/20 05:42:43;;;;;;;0.30;0.30;;;5.80;99.90;;;;;;4953771;29;20727;-60
2023/12/20 05:45:09;;;;;;;0.30;0.30;;;5.80;99.90;;;;;;4953632;29;20261;-61
2023/12/20 05:47:35;;;;;;;0.40;0.40;;;5.80;99.90;;;;;;4953750;29;20328;-61
2023/12/20 05:50:00;;;;;;;0.30;0.30;;;5.80;99.90;;;;;;4953314;29;20420;-61
2023/12/20 05:52:26;;;;;;;0.30;0.30;;;5.70;99.90;;;;;;4953759;29;20181;-62
2023/12/20 05:54:52;;;;;;;0.30;0.30;;;5.70;99.90;;;;;;4953660;29;20678;-61
2023/12/20 05:57:17;;;;;;;0.30;0.30;;;5.70;99.90;;;;;;4953624;29;20292;-61
2023/12/20 05:59:43;;;;;;;0.40;0.40;;;5.70;99.90;;;;;;4953356;29;20240;-61
2023/12/20 06:02:09;;;;;;;0.30;0.30;;;5.70;99.90;;;;;;4953475;29;20199;-61
2023/12/20 06:04:34;;;;;;;0.40;0.40;;;5.70;99.90;;;;;;4953991;29;20647;-62
2023/12/20 06:07:00;;;;;;;0.30;0.30;;;5.60;99.90;;;;;;4953560;29;20175;-61
2023/12/20 06:09:27;;;;;;;0.37;0.37;;;5.50;99.90;;;;;;4956101;28;20173;-61
2023/12/20 06:11:52;;;;;;;0.40;0.40;;;5.50;99.90;;;;;;4957171;29;20197;-61
2023/12/20 06:14:19;;;;;;;0.77;0.60;;;5.60;99.90;;;;;;4957833;29;20553;-61
2023/12/20 06:16:45;;;;;;;0.30;0.30;;;5.70;99.90;;;;;;4957215;29;20197;-61
2023/12/20 06:19:11;;;;;;;0.40;0.40;;;5.70;99.90;;;;;;4957443;29;20609;-61
2023/12/20 06:21:36;;;;;;;0.40;0.40;;;5.70;99.90;;;;;;4957294;29;20190;-62
2023/12/20 06:24:02;;;;;;;0.40;0.40;;;5.70;99.90;;;;;;4957136;28;20249;-61
2023/12/20 06:26:28;;;;;;;0.40;0.40;;;5.70;99.90;;;;;;4957116;28;20220;-60
2023/12/20 06:28:53;;;;;;;0.40;0.40;;;5.70;99.90;;;;;;4956997;29;20169;-61
2023/12/20 06:31:19;;;;;;;0.40;0.40;;;5.60;99.90;;;;;;4956700;29;20202;-61
2023/12/20 06:33:45;;;;;;;0.30;0.30;;;5.70;99.90;;;;;;4957016;29;20181;-61
2023/12/20 06:36:13;;;;;;;0.40;0.40;;;5.60;99.90;;;;;;4956890;29;20201;-61
2023/12/20 06:38:39;;;;;;;0.65;0.60;;;5.60;99.90;;;;;;4956900;29;20655;-61
2023/12/20 06:41:05;;;;;;;0.50;0.50;;;5.60;99.90;;;;;;4956393;29;20224;-61
2023/12/20 06:43:32;;;;;;;0.30;0.30;;;5.60;99.90;;;;;;4956697;29;20422;-61
2023/12/20 06:45:58;;;;;;;0.45;0.45;;;5.70;99.90;;;;;;4956755;29;20244;-61
2023/12/20 06:48:23;;;;;;;0.50;0.50;;;5.70;99.90;;;;;;4956925;29;20183;-61
2023/12/20 06:50:49;;;;;;;0.30;0.30;;;5.70;99.90;;;;;;4956433;29;20258;-62
2023/12/20 06:53:15;;;;;;;0.40;0.40;;;5.80;99.90;;;;;;4956630;29;20188;-61
2023/12/20 06:55:40;;;;;;;0.30;0.30;;;5.80;99.90;;;;;;4956542;29;20191;-61
2023/12/20 06:58:06;;;;;;;0.30;0.30;;;5.80;99.90;;;;;;4956560;29;20170;-61
2023/12/20 07:00:33;;;;;;;0.40;0.40;;;5.90;99.90;;;;;;4956188;29;20193;-61
2023/12/20 07:02:58;;;;;;;0.40;0.40;;;6.00;99.90;;;;;;4956697;28;20184;-61
2023/12/20 07:05:24;;;;;;;0.40;0.40;;;5.90;99.90;;;;;;4956513;29;20170;-60
2023/12/20 07:07:50;;;;;;;0.40;0.40;;;5.90;99.90;;;;;;4956357;29;20687;-61
2023/12/20 07:10:16;;;;;;;0.60;0.60;;;5.80;99.90;;;;;;4956023;29;20195;-61
2023/12/20 07:12:41;;;;;;;0.30;0.30;;;5.80;99.90;;;;;;4956293;29;20259;-61
2023/12/20 07:15:07;;;;;;;0.53;0.40;;;5.80;99.90;;;;;;4956240;29;20649;-61
2023/12/20 07:17:34;;;;;;;0.35;0.35;;;5.80;99.90;;;;;;4956303;29;20209;-61
2023/12/20 07:20:03;;;;;;;0.30;0.30;;;5.90;99.90;;;;;;4955078;28;20179;-61
2023/12/20 07:22:33;;;;;;;1.25;0.50;;;5.90;99.90;;;;;;4956008;29;20182;-61
2023/12/20 07:24:59;;;;;;;0.30;0.30;;;5.90;99.90;;;;;;4956148;29;20254;-61
2023/12/20 07:27:25;;;;;;;0.30;0.30;;;6.00;99.90;;;;;;4955936;29;20185;-60
2023/12/20 07:29:51;;;;;;;1.00;0.90;;;6.00;99.90;;;;;;4955688;29;20236;-61
2023/12/20 07:32:16;;;;;;;0.40;0.40;;;6.00;99.90;;;;;;4955869;29;20610;-61
2023/12/20 07:34:42;;;;;;;0.40;0.40;;;6.00;99.90;;;;;;4955973;29;20178;-61
2023/12/20 07:37:10;;;;;;;1.23;1.23;;;6.00;99.90;;;;;;4955772;29;20229;-61
2023/12/20 07:39:36;;;;;;;0.43;0.43;;;6.00;99.90;;;;;;4955736;28;20177;-62
2023/12/20 07:42:01;;;;;;;0.32;0.32;;;5.90;99.90;;;;;;4955820;29;20212;-61
2023/12/20 07:44:27;;;;;;;0.30;0.30;;;5.90;99.90;;;;;;4955802;29;20232;-61
2023/12/20 07:46:52;;;;;;;0.40;0.40;;;6.00;99.90;;;;;;4955793;29;20603;-61
2023/12/20 07:49:19;;;;;;;0.40;0.40;;;6.00;99.90;;;;;;4955651;29;20179;-61
2023/12/20 07:51:45;;;;;;;0.50;0.50;;;6.00;99.90;;;;;;4955738;29;20702;-60
2023/12/20 07:54:10;;;;;;;0.40;0.40;;;6.10;99.90;;;;;;4955672;29;20268;-61
2023/12/20 07:56:36;;;;;;;0.40;0.40;;;6.10;99.90;;;;;;4955467;29;20239;-60
2023/12/20 07:59:02;;;;;;;0.40;0.40;;;6.10;99.90;;;;;;4955557;29;20254;-61
2023/12/20 08:01:27;;;;;;;0.30;0.30;;;6.10;99.90;;;;;;4955361;29;20205;-61
2023/12/20 08:03:53;;;;;;;0.30;0.30;;;6.30;99.90;;;;;;4955425;29;20177;-61
2023/12/20 08:06:19;;;;;;;0.30;0.30;;;6.50;99.90;;;;;;4955451;29;20279;-61
2023/12/20 08:08:45;;;;;;;0.40;0.40;;;6.70;99.90;;;;;;4955453;29;20183;-61
2023/12/20 08:11:10;;;;;;;0.30;0.30;;;6.80;99.90;;;;;;4954824;29;20239;-61
2023/12/20 08:13:36;;;;;;;0.40;0.40;;;6.90;99.90;;;;;;4955319;29;20227;-61
2023/12/20 08:16:03;;;;;;;0.40;0.40;;;6.90;99.90;;;;;;4955101;29;20228;-61
2023/12/20 08:18:29;;;;;;;0.40;0.40;;;7.00;99.90;;;;;;4955239;29;20725;-61
2023/12/20 08:20:54;;;;;;;0.40;0.40;;;6.90;99.90;;;;;;4954742;29;20283;-61
2023/12/20 08:23:20;;;;;;;0.40;0.40;;;6.80;99.90;;;;;;4955343;29;20212;-61
2023/12/20 08:25:46;;;;;;;0.32;0.32;;;6.70;99.90;;;;;;4955036;29;20176;-62
2023/12/20 08:28:12;;;;;;;0.40;0.40;;;6.70;99.90;;;;;;4954947;29;20176;-61
2023/12/20 08:30:38;;;;;;;0.40;0.40;;;6.70;99.90;;;;;;4954541;29;20464;-61
2023/12/20 08:33:04;;;;;;;0.30;0.30;;;6.50;99.90;;;;;;4954963;28;20187;-61
2023/12/20 08:35:30;;;;;;;0.32;0.32;;;6.40;99.90;;;;;;4954776;29;20176;-60
2023/12/20 08:37:56;;;;;;;0.33;0.33;;;6.30;99.90;;;;;;4954806;29;20548;-61
2023/12/20 08:40:21;;;;;;;0.40;0.40;;;6.30;99.90;;;;;;4954223;29;20210;-61
2023/12/20 08:42:47;;;;;;;0.30;0.30;;;6.30;99.90;;;;;;4954682;29;20415;-61
2023/12/20 08:45:12;;;;;;;0.60;0.50;;;6.30;99.90;;;;;;4954843;29;20176;-61
2023/12/20 08:47:38;;;;;;;0.50;0.50;;;6.40;99.90;;;;;;4954887;29;20745;-61
2023/12/20 08:50:04;;;;;;;0.50;0.50;;;6.30;99.90;;;;;;4954152;29;20316;-61
2023/12/20 08:52:30;;;;;;;3.53;0.80;;;6.30;99.90;;;;;;4954546;29;20168;-60
2023/12/20 08:54:55;;;;;;;1.53;1.43;;;6.30;99.90;;;;;;4954368;29;20640;-61
2023/12/20 08:57:23;;;;;;;0.70;0.70;;;6.30;99.90;;;;;;4954423;29;20623;-61
2023/12/20 08:59:49;;;;;;;0.63;0.52;;;6.20;99.90;;;;;;4954097;29;20180;-61
2023/12/20 09:02:16;;;;;;;0.60;0.60;;;6.20;99.90;;;;;;4954267;29;20683;-61
2023/12/20 09:04:41;;;;;;;0.40;0.40;;;6.20;99.90;;;;;;4954298;29;20260;-61
2023/12/20 09:07:07;;;;;;;0.70;0.70;;;6.20;99.90;;;;;;4954313;29;20726;-61
2023/12/20 09:09:33;;;;;;;1.30;0.60;;;6.20;99.90;;;;;;4954035;29;20696;-61
2023/12/20 09:11:59;;;;;;;0.37;0.37;;;6.20;99.90;;;;;;4953980;29;20806;-61
2023/12/20 09:14:24;;;;;;;0.73;0.73;;;6.20;99.90;;;;;;4954174;29;20186;-61
2023/12/20 09:16:51;;;;;;;0.40;0.40;;;6.20;99.90;;;;;;4954044;29;20212;-60
2023/12/20 09:19:17;;;;;;;0.47;0.47;;;6.00;99.90;;;;;;4954134;29;20732;-61
2023/12/20 09:21:43;;;;;;;0.40;0.40;;;5.80;99.90;;;;;;4953955;29;20206;-61
2023/12/20 09:24:09;;;;;;;0.40;0.40;;;6.00;99.90;;;;;;4953918;29;20713;-61
2023/12/20 09:26:34;;;;;;;0.50;0.50;;;6.10;99.90;;;;;;4953961;29;20980;-61
2023/12/20 09:29:00;;;;;;;0.30;0.30;;;6.30;99.90;;;;;;4953948;28;20638;-60
2023/12/20 09:31:26;;;;;;;0.30;0.30;;;6.40;99.90;;;;;;4953618;29;20219;-61
2023/12/20 09:33:52;;;;;;;0.88;0.50;;;6.40;99.90;;;;;;4953893;29;20180;-61
2023/12/20 09:36:18;;;;;;;0.37;0.37;;;6.40;99.90;;;;;;4953819;29;20203;-62
2023/12/20 09:38:43;;;;;;;0.40;0.40;;;6.40;99.90;;;;;;4953819;29;20175;-61
2023/12/20 09:41:09;;;;;;;0.40;0.40;;;6.40;99.90;;;;;;5017051;23;20242;-63
2023/12/20 09:43:38;;;;;;;0.50;0.50;;;6.50;99.90;;;;;;4992264;28;20658;-63
2023/12/20 09:46:07;;;;;;;0.60;0.60;;;6.40;99.90;;;;;;4992591;28;20186;-62
2023/12/20 09:48:33;;;;;;;0.40;0.40;;;6.40;99.90;;;;;;4992258;28;20714;-63
2023/12/20 09:50:59;;;;;;;0.40;0.40;;;6.50;99.90;;;;;;4991903;28;20290;-63
2023/12/20 09:53:29;;;;;;;0.95;0.70;;;6.40;99.90;;;;;;4992226;28;20207;-62
2023/12/20 09:55:59;;;;;;;0.32;0.32;;;6.20;99.90;;;;;;4992380;28;20216;-63
2023/12/20 09:58:25;;;;;;;0.70;0.70;;;6.20;99.90;;;;;;4992253;28;20183;-63
2023/12/20 10:00:52;;;;;;;0.40;0.40;;;6.20;99.90;;;;;;4991984;28;20192;-62
2023/12/20 10:03:24;;;;;;;0.30;0.30;;;6.30;99.90;;;;;;4992263;28;20168;-62
2023/12/20 10:05:53;;;;;;;0.52;0.52;;;6.40;99.90;;;;;;4992193;28;20173;-63
2023/12/20 10:08:21;;;;;;;0.88;0.75;;;6.40;99.90;;;;;;4992239;28;20181;-63
2023/12/20 10:10:47;;;;;;;0.50;0.50;;;6.40;99.90;;;;;;4991842;28;20615;-63
2023/12/20 10:13:13;;;;;;;0.43;0.43;;;6.30;99.90;;;;;;4992235;28;20170;-63
2023/12/20 10:15:39;;;;;;;0.60;0.60;;;6.30;99.90;;;;;;4992187;28;20554;-63
2023/12/20 10:18:05;;;;;;;0.30;0.30;;;6.40;99.90;;;;;;4992144;28;20237;-63
2023/12/20 10:20:31;;;;;;;0.50;0.50;;;6.30;99.90;;;;;;4991646;28;20173;-63
2023/12/20 10:22:58;;;;;;;0.40;0.40;;;6.40;99.90;;;;;;4992103;28;20575;-62
2023/12/20 10:25:24;;;;;;;0.40;0.40;;;6.40;99.90;;;;;;4992166;28;20425;-63
2023/12/20 10:28:09;;;;;;;0.60;0.60;;;6.30;99.90;;;;;;4992018;28;20183;-63
2023/12/20 10:30:35;;;;;;;0.40;0.40;;;6.20;99.90;;;;;;4991758;28;20185;-62
2023/12/20 10:33:01;;;;;;;0.80;0.80;;;6.20;99.90;;;;;;4991823;28;20690;-63
2023/12/20 10:35:26;;;;;;;0.40;0.40;;;6.20;99.90;;;;;;4992030;28;20186;-62
2023/12/20 10:37:56;;;;;;;0.37;0.37;;;6.20;99.90;;;;;;4991896;28;20211;-63
2023/12/20 10:40:22;;;;;;;0.60;0.60;;;6.20;99.90;;;;;;4991624;28;20183;-63
2023/12/20 10:42:50;;;;;;;0.40;0.40;;;6.40;99.90;;;;;;4991849;28;20623;-63
2023/12/20 10:45:17;;;;;;;0.68;0.45;;;6.40;99.90;;;;;;4991925;28;20177;-62
2023/12/20 10:47:46;;;;;;;0.63;0.50;;;6.30;99.90;;;;;;4991726;28;20191;-63
2023/12/20 10:50:11;;;;;;;0.52;0.52;;;6.40;99.90;;;;;;4991600;28;20202;-63
2023/12/20 10:52:38;;;;;;;1.00;1.00;;;6.50;99.90;;;;;;4991788;28;20624;-63
2023/12/20 10:55:05;;;;;;;1.50;0.75;;;6.70;99.90;;;;;;4992483;28;20650;-63
2023/12/20 10:57:31;;;;;;;0.40;0.40;;;6.90;99.90;;;;;;4995227;28;20215;-63
2023/12/20 11:00:04;;;;;;;0.40;0.40;;;6.70;99.90;;;;;;4994991;28;20165;-62
2023/12/20 11:02:32;;;;;;;0.60;0.60;;;6.70;99.90;;;;;;4995397;28;20202;-63
2023/12/20 11:05:16;;;;;;;1.15;1.15;;;6.80;99.90;;;;;;4995334;28;20233;-63
2023/12/20 11:08:04;;;;;;;0.50;0.50;;;6.80;99.90;;;;;;4995239;28;20654;-62
2023/12/20 11:10:50;;;;;;;0.40;0.40;;;6.60;99.80;;;;;;4973906;28;20204;-62
2023/12/20 11:13:54;;;;;;;0.30;0.30;;;6.50;99.90;;;;;;4995200;28;20186;-63
2023/12/20 11:16:20;;;;;;;0.40;0.40;;;6.60;99.90;;;;;;4974144;28;20229;-63
2023/12/20 11:18:46;;;;;;;0.50;0.50;;;6.80;99.90;;;;;;4994806;28;20207;-63
2023/12/20 11:21:13;;;;;;;0.40;0.40;;;6.80;99.80;;;;;;4994527;28;20225;-62
2023/12/20 11:23:42;;;;;;;0.50;0.50;;;6.60;99.50;;;;;;4994824;28;20419;-63
2023/12/20 11:26:07;;;;;;;0.50;0.50;;;6.50;99.90;;;;;;4994833;28;20182;-63
2023/12/20 11:28:33;;;;;;;0.60;0.60;;;6.60;99.90;;;;;;4994846;28;20252;-63
2023/12/20 11:31:01;;;;;;;0.53;0.53;;;6.60;99.90;;;;;;4994318;28;20202;-63
2023/12/20 11:33:36;;;;;;;0.50;0.50;;;6.70;99.90;;;;;;4994582;28;20266;-62
2023/12/20 11:36:02;;;;;;;0.50;0.50;;;6.70;99.00;;;;;;4994627;28;20241;-63
2023/12/20 11:38:38;;;;;;;0.40;0.40;;;6.80;98.90;;;;;;4994654;28;20186;-62
2023/12/20 11:41:06;;;;;;;0.45;0.38;;;6.80;99.20;;;;;;4994088;28;20767;-63
2023/12/20 11:43:39;;;;;;;0.47;0.47;;;6.90;98.40;;;;;;4994539;28;20175;-63
2023/12/20 11:46:05;;;;;;;0.52;0.52;;;6.80;98.00;;;;;;4994422;28;20195;-63
2023/12/20 11:48:32;;;;;;;0.40;0.40;;;6.90;98.70;;;;;;4994365;28;20183;-63
2023/12/20 11:50:58;;;;;;;0.98;0.65;;;7.00;98.50;;;;;;4994045;28;20206;-63
2023/12/20 11:53:24;;;;;;;0.57;0.57;;;7.20;98.40;;;;;;4994355;28;20644;-63
2023/12/20 11:55:49;;;;;;;0.40;0.40;;;7.20;97.80;;;;;;4994193;28;20424;-63
2023/12/20 11:58:16;;;;;;;0.60;0.60;;;7.10;97.50;;;;;;4994213;28;20665;-62
2023/12/20 12:00:43;;;;;;;0.77;0.65;;;7.00;97.30;;;;;;4993628;28;20440;-63
2023/12/20 12:03:09;;;;;;;1.08;1.08;;;7.00;97.60;;;;;;4994076;28;20212;-62
2023/12/20 12:05:35;;;;;;;1.95;0.60;;;6.90;97.40;;;;;;4993947;28;20261;-63
2023/12/20 12:08:02;;;;;;;0.50;0.50;;;6.90;97.50;;;;;;4993943;28;20190;-63
2023/12/20 12:10:28;;;;;;;1.48;1.38;;;6.90;97.40;;;;;;4993731;28;20172;-63
2023/12/20 12:12:54;;;;;;;0.40;0.40;;;6.60;96.90;;;;;;4994079;28;20175;-62
2023/12/20 12:15:21;;;;;;;0.80;0.80;;;6.50;97.50;;;;;;4993951;28;20260;-63
2023/12/20 12:17:54;;;;;;;0.70;0.70;;;6.40;97.80;;;;;;4993679;28;20213;-63
2023/12/20 12:20:20;;;;;;;0.80;0.60;;;6.10;98.10;;;;;;4993416;28;20182;-62
2023/12/20 12:22:47;;;;;;;0.75;0.75;;;6.00;98.40;;;;;;4993812;28;20174;-63
2023/12/20 12:25:14;;;;;;;0.63;0.60;;;5.80;98.50;;;;;;4993747;28;20260;-63
2023/12/20 12:27:40;;;;;;;1.15;1.15;;;5.80;98.50;;;;;;4993571;28;20681;-62
2023/12/20 12:30:07;;;;;;;0.75;0.75;;;5.70;98.40;;;;;;4993300;28;20654;-63
2023/12/20 12:32:33;;;;;;;1.10;1.00;;;5.70;98.30;;;;;;4993471;28;20238;-63
2023/12/20 12:34:59;;;;;;;0.57;0.57;;;5.70;98.50;;;;;;4993614;28;20188;-62
2023/12/20 12:37:24;;;;;;;1.73;0.90;;;5.60;98.70;;;;;;4993415;28;20511;-62
2023/12/20 12:39:50;;;;;;;2.47;1.13;;;5.70;99.00;;;;;;4993236;28;20171;-63
2023/12/20 12:42:16;;;;;;;1.33;1.23;;;5.70;99.00;;;;;;4993117;28;20208;-63
2023/12/20 12:44:41;;;;;;;0.70;0.70;;;5.40;98.00;;;;;;4993366;28;20168;-63
2023/12/20 12:47:07;;;;;;;2.87;0.63;;;5.40;98.30;;;;;;4993323;28;20207;-64
2023/12/20 12:49:33;;;;;;;1.42;1.05;;;5.40;98.50;;;;;;4993163;28;20204;-63
2023/12/20 12:51:59;;;;;;;3.73;1.43;;;5.40;98.10;;;;;;4992985;28;20238;-63
2023/12/20 12:54:24;;;;;;;1.73;1.57;;;5.40;98.30;;;;;;4993257;28;20262;-62